Time;durP1;ratioP1;P1;durP2;ratioP2;P2;SDS_P1;SDS_P2;PMS_P1;PMS_P2;Temp;Humidity;BMP_temperature;BMP_pressure;BME280_temperature;BME280_humidity;BME280_pressure;Samples;Min_cycle;Max_cycle;Signal;HPM_P1;HPM_P2
2022/11/19 00:01:22;;;;;;;4.90;3.30;;;;;;;-6.07;71.90;96884.53;6183447;28;20053;-66
2022/11/19 00:04:26;;;;;;;4.68;2.70;;;;;;;-6.09;72.15;96881.09;6181129;28;20046;-66
2022/11/19 00:07:30;;;;;;;5.38;2.83;;;;;;;-6.05;72.28;96887.94;6185345;28;20065;-66
2022/11/19 00:10:39;;;;;;;4.32;2.28;;;;;;;-6.04;72.80;96879.41;6179959;28;20061;-67
2022/11/19 00:13:42;;;;;;;5.47;3.25;;;;;;;-6.00;72.91;96881.13;6184432;28;20045;-67
2022/11/19 00:16:47;;;;;;;;;;;;;;;-5.92;72.60;96881.91;6203469;28;20052;-67
2022/11/19 00:19:52;;;;;;;5.85;2.78;;;;;;;-5.85;72.96;96874.25;6221302;28;20304;-67
2022/11/19 00:22:55;;;;;;;;;;;;;;;-5.64;71.85;96877.63;6210536;28;20057;-67
2022/11/19 00:26:08;;;;;;;3.15;2.35;;;;;;;-5.69;72.32;96875.94;6179440;28;19925;-67
2022/11/19 00:29:13;;;;;;;5.70;2.22;;;;;;;-5.72;71.74;96871.69;6189421;28;20070;-68
2022/11/19 00:32:17;;;;;;;3.20;2.35;;;;;;;-5.73;72.41;96871.66;6164178;28;20053;-67
2022/11/19 00:35:23;;;;;;;4.47;2.83;;;;;;;-5.75;71.89;96868.25;6191153;28;20095;-68
2022/11/19 00:38:28;;;;;;;3.40;2.78;;;;;;;-5.77;71.72;96864.84;6175747;28;20565;-67
2022/11/19 00:41:33;;;;;;;4.15;3.13;;;;;;;-5.75;72.50;96863.13;6190423;28;20042;-66
2022/11/19 00:44:36;;;;;;;;;;;;;;;-5.64;72.37;96874.22;6185335;28;20412;-67
2022/11/19 00:47:40;;;;;;;3.13;2.30;;;;;;;-5.62;71.77;96875.06;6186623;28;20297;-67
2022/11/19 00:50:45;;;;;;;3.75;2.78;;;;;;;-5.58;71.57;96863.09;6169716;28;20057;-67
2022/11/19 00:53:48;;;;;;;;;;;;;;;-5.67;71.81;96871.66;6186302;28;20041;-67
2022/11/19 00:56:52;;;;;;;6.15;2.83;;;;;;;-5.72;71.88;96873.38;6189516;28;19925;-67
2022/11/19 00:59:57;;;;;;;5.38;3.35;;;;;;;-5.60;71.92;96875.94;6189817;28;20634;-66
2022/11/19 01:03:02;;;;;;;3.25;2.17;;;;;;;-5.65;72.23;96867.41;6187397;28;20048;-68
2022/11/19 01:06:05;;;;;;;;;;;;;;;-5.58;71.45;96863.94;6185110;28;20099;-67
2022/11/19 01:09:10;;;;;;;4.10;2.65;;;;;;;-5.65;71.72;96857.16;6190678;28;19925;-68
2022/11/19 01:12:17;;;;;;;4.35;2.75;;;;;;;-5.69;72.37;96860.56;6181926;28;20045;-68
2022/11/19 01:15:22;;;;;;;4.80;2.25;;;;;;;-5.66;72.50;96863.97;6184584;28;20049;-68
2022/11/19 01:18:25;;;;;;;;;;;;;;;-5.59;72.27;96862.25;6193808;28;20050;-66
2022/11/19 01:21:33;;;;;;;5.38;2.90;;;;;;;-5.80;72.23;96842.66;6183256;28;19928;-67
2022/11/19 01:24:37;;;;;;;4.10;2.83;;;;;;;-5.60;72.29;96860.56;6197338;28;20516;-67
2022/11/19 01:27:41;;;;;;;3.53;2.80;;;;;;;-5.65;72.59;96865.69;6199413;28;20045;-67
2022/11/19 01:30:46;;;;;;;8.05;3.70;;;;;;;-5.63;72.75;96863.13;6199824;28;20157;-67
2022/11/19 01:33:52;;;;;;;5.18;2.55;;;;;;;-5.61;72.60;96870.78;6197061;28;20040;-68
2022/11/19 01:36:56;;;;;;;4.18;2.85;;;;;;;-5.57;72.48;96875.94;6197732;28;20572;-72
2022/11/19 01:40:01;;;;;;;4.70;2.70;;;;;;;-5.51;73.08;96873.34;6194864;28;20049;-66
2022/11/19 01:43:11;;;;;;;4.18;2.25;;;;;;;-5.39;72.67;96866.50;6196146;28;20046;-74
2022/11/19 01:46:18;;;;;;;3.65;2.92;;;;;;;-5.30;72.08;96863.91;6198944;28;20086;-73
2022/11/19 01:49:22;;;;;;;3.17;2.42;;;;;;;-5.31;72.16;96872.47;6194720;28;20049;-69
2022/11/19 01:52:26;;;;;;;4.72;2.83;;;;;;;-5.33;72.00;96866.47;6171846;28;20076;-68
2022/11/19 01:55:30;;;;;;;;;;;;;;;-5.39;71.94;96869.06;6187097;28;20128;-68
2022/11/19 01:58:40;;;;;;;5.60;3.00;;;;;;;-5.39;72.76;96869.91;6185343;28;19929;-73
2022/11/19 02:01:46;;;;;;;6.25;2.97;;;;;;;-5.35;72.36;96875.88;6183086;28;20043;-74
2022/11/19 02:04:51;;;;;;;5.18;3.22;;;;;;;-5.31;72.97;96875.88;6183953;28;20038;-69
2022/11/19 02:07:57;;;;;;;3.88;2.60;;;;;;;-5.28;72.28;96877.56;6188369;28;20041;-71
2022/11/19 02:11:26;;;;;;;3.95;2.80;;;;;;;-5.21;72.34;96880.13;6185260;28;20080;-71
2022/11/19 02:15:01;;;;;;;5.30;2.60;;;;;;;-5.10;72.39;96876.66;6176407;28;20104;-73
2022/11/19 02:18:36;;;;;;;4.75;2.88;;;;;;;-5.04;72.32;96872.38;6151589;28;20045;-72
2022/11/19 02:22:05;;;;;;;3.95;2.85;;;;;;;-4.98;72.05;96867.22;6185476;28;20049;-71
2022/11/19 02:25:23;;;;;;;4.20;2.53;;;;;;;-4.92;72.25;96865.50;6169917;28;20038;-73
2022/11/19 02:28:47;;;;;;;4.18;2.47;;;;;;;-4.87;72.09;96858.59;6172064;28;20042;-76
2022/11/19 02:32:21;;;;;;;5.68;2.70;;;;;;;-4.85;72.01;96857.72;6187160;28;20440;-74
2022/11/19 02:35:50;;;;;;;3.72;2.30;;;;;;;-4.82;71.88;96857.72;6180974;28;20049;-71
2022/11/19 02:39:05;;;;;;;4.47;2.90;;;;;;;-4.82;72.11;96857.72;6185407;28;20528;-76
2022/11/19 02:42:28;;;;;;;5.47;3.00;;;;;;;-4.76;71.89;96857.69;6177306;28;20041;-73
2022/11/19 02:45:36;;;;;;;4.78;2.63;;;;;;;-4.74;71.87;96865.38;6182263;28;20046;-72
2022/11/19 02:48:45;;;;;;;4.03;2.22;;;;;;;-4.80;72.09;96852.59;6183473;28;20065;-74
2022/11/19 02:51:52;;;;;;;11.02;5.10;;;;;;;-4.85;72.34;96862.03;6168712;28;20072;-70
2022/11/19 02:54:57;;;;;;;5.32;3.08;;;;;;;-4.85;72.39;96873.13;6182105;28;20045;-69
2022/11/19 03:05:18;;;;;;;4.30;3.00;;;;;;;-4.74;72.25;96881.66;6182555;28;20050;-67
2022/11/19 03:08:23;;;;;;;4.15;3.08;;;;;;;-4.69;71.93;96884.19;6182900;28;20049;-71
2022/11/19 03:11:27;;;;;;;;;;;;;;;-4.64;71.71;96881.59;6196816;28;20049;-68
2022/11/19 03:18:23;;;;;;;4.38;2.78;;;;;;;-4.56;71.43;96875.59;6193450;28;20049;-75
2022/11/19 03:21:45;;;;;;;4.13;2.45;;;;;;;-4.51;71.39;96881.53;6194184;28;20038;-75
2022/11/19 03:25:01;;;;;;;3.85;2.92;;;;;;;-4.47;71.89;96886.63;6196425;28;20132;-71
2022/11/19 03:28:18;;;;;;;4.05;2.47;;;;;;;-4.42;71.29;96877.19;6225326;28;20042;-71
2022/11/19 03:31:25;;;;;;;4.95;3.05;;;;;;;-4.42;71.83;96879.75;6177446;28;20049;-73
2022/11/19 03:34:32;;;;;;;4.65;2.70;;;;;;;-4.41;71.49;96881.50;6182967;28;20057;-72
2022/11/19 03:37:41;;;;;;;4.50;2.90;;;;;;;-4.37;71.22;96888.31;6178740;28;20042;-72
2022/11/19 03:40:48;;;;;;;6.38;3.15;;;;;;;-4.33;71.31;96877.13;6175902;28;20065;-73
2022/11/19 03:43:57;;;;;;;3.70;2.70;;;;;;;-4.31;71.36;96888.25;6162998;28;20042;-70
2022/11/19 03:47:18;;;;;;;6.63;3.30;;;;;;;-4.27;71.56;96892.53;6175923;28;20042;-72
2022/11/19 03:50:42;;;;;;;5.25;2.90;;;;;;;-4.25;71.10;96895.91;6178223;28;20045;-71
2022/11/19 03:53:48;;;;;;;5.30;3.70;;;;;;;-4.24;71.59;96896.81;6179564;28;20050;-71
2022/11/19 03:56:53;;;;;;;5.72;3.13;;;;;;;-4.20;71.41;96899.31;6187490;28;20513;-71
2022/11/19 03:59:56;;;;;;;;;;;;;;;-4.15;71.17;96897.59;6165925;28;20109;-70
2022/11/19 04:03:01;;;;;;;7.47;3.53;;;;;;;-4.13;71.34;96898.44;6180404;28;19922;-71
2022/11/19 04:06:07;;;;;;;4.38;3.38;;;;;;;-4.15;70.98;96884.72;6177544;28;20052;-71
2022/11/19 04:09:12;;;;;;;5.25;3.40;;;;;;;-4.01;70.98;96894.06;6182791;28;20034;-70
2022/11/19 04:12:21;;;;;;;6.47;3.30;;;;;;;-3.97;70.76;96895.75;6180300;28;20046;-71
2022/11/19 04:15:25;;;;;;;7.20;3.40;;;;;;;-3.92;70.78;96899.97;6180066;28;20604;-70
2022/11/19 04:18:30;;;;;;;4.70;3.40;;;;;;;-3.88;70.65;96903.38;6184454;28;20049;-70
2022/11/19 04:21:35;;;;;;;7.90;3.50;;;;;;;-3.82;70.86;96911.06;6194089;28;20049;-70
2022/11/19 04:24:39;;;;;;;8.70;3.63;;;;;;;-3.73;70.74;96911.00;6192216;28;20513;-69
2022/11/19 04:27:46;;;;;;;5.30;3.25;;;;;;;-3.63;70.37;96912.59;6216256;28;20493;-70
2022/11/19 04:30:51;;;;;;;5.55;3.20;;;;;;;-3.59;70.55;96912.56;6195521;28;20048;-70
2022/11/19 04:33:55;;;;;;;5.32;3.40;;;;;;;-3.53;70.38;96922.84;6185031;28;20108;-68
2022/11/19 04:37:00;;;;;;;4.75;3.10;;;;;;;-3.48;70.28;96915.91;6181414;28;20049;-70
2022/11/19 04:40:03;;;;;;;;;;;;;;;-3.50;70.05;96918.50;6183533;28;20053;-70
2022/11/19 04:43:09;;;;;;;6.85;3.65;;;;;;;-3.56;70.01;96912.56;6179308;28;19922;-69
2022/11/19 04:46:13;;;;;;;4.57;3.42;;;;;;;-3.67;69.83;96905.78;6181286;28;20517;-70
2022/11/19 04:49:20;;;;;;;5.35;3.20;;;;;;;-3.59;70.25;96910.00;6180532;28;20057;-70
2022/11/19 04:52:27;;;;;;;7.75;3.47;;;;;;;-3.47;70.17;96920.19;6180718;28;20061;-69
2022/11/19 04:55:32;;;;;;;4.50;3.05;;;;;;;-3.37;69.77;96919.22;6182498;28;20046;-69
2022/11/19 04:58:37;;;;;;;5.68;3.25;;;;;;;-3.31;69.58;96923.47;6183196;28;20049;-69
2022/11/19 05:01:41;;;;;;;6.47;3.22;;;;;;;-3.38;69.56;96917.53;6183768;28;20049;-69
2022/11/19 05:04:43;;;;;;;;;;;;;;;-3.32;69.86;96932.91;6179618;28;20100;-69
2022/11/19 05:07:48;;;;;;;4.50;2.90;;;;;;;-3.36;69.53;96940.69;6184116;28;19933;-69
2022/11/19 05:10:53;;;;;;;5.45;2.80;;;;;;;-3.41;69.47;96945.88;6181326;28;20237;-70
2022/11/19 05:13:57;;;;;;;3.47;2.65;;;;;;;-3.50;69.42;96943.38;6184236;28;20053;-70
2022/11/19 05:17:00;;;;;;;;;;;;;;;-3.48;69.46;96951.91;6178888;28;21901;-70
2022/11/19 05:20:04;;;;;;;6.40;3.47;;;;;;;-3.60;69.47;96950.31;6200629;28;19926;-71
2022/11/19 05:23:08;;;;;;;;;;;;;;;-3.52;69.50;96965.69;6200734;28;20045;-69
2022/11/19 05:26:12;;;;;;;6.25;3.72;;;;;;;-3.62;69.42;96963.19;6207172;28;19924;-70
2022/11/19 05:29:15;;;;;;;;;;;;;;;-3.62;69.13;96975.19;6206464;28;20077;-70
2022/11/19 05:32:17;;;;;;;5.78;3.55;;;;;;;-3.63;69.34;96974.31;6182709;28;19918;-70
2022/11/19 05:35:22;;;;;;;6.93;3.17;;;;;;;-3.61;69.50;96969.19;6168888;28;20057;-69
2022/11/19 05:38:25;;;;;;;;;;;;;;;-3.57;69.14;96972.56;6182719;28;20053;-69
2022/11/19 05:41:28;;;;;;;3.28;2.95;;;;;;;-3.53;69.36;96969.97;6180023;28;19922;-69
2022/11/19 05:44:31;;;;;;;;;;;;;;;-3.40;69.05;96975.84;6184438;28;20409;-70
2022/11/19 05:47:35;;;;;;;8.27;4.20;;;;;;;-3.35;69.20;96976.69;6183247;28;20692;-68
2022/11/19 05:50:41;;;;;;;;;;;;;;;-3.20;69.23;96984.28;6184075;28;20131;-70
2022/11/19 05:53:44;;;;;;;13.15;6.07;;;;;;;-3.16;68.87;96983.38;6184822;28;19929;-70
2022/11/19 05:56:48;;;;;;;;;;;;;;;-3.07;68.80;96987.59;6184033;28;20050;-70
2022/11/19 05:59:53;;;;;;;9.27;4.80;;;;;;;-3.05;69.02;96974.72;6191783;28;19929;-70
2022/11/19 06:02:58;;;;;;;7.63;4.43;;;;;;;-2.97;68.71;96985.78;6186581;28;20053;-69
2022/11/19 06:06:02;;;;;;;7.47;4.35;;;;;;;-2.98;68.92;96991.78;6182296;28;20045;-71
2022/11/19 06:09:07;;;;;;;7.40;4.40;;;;;;;-2.88;68.46;96996.00;6181491;28;20508;-69
2022/11/19 06:12:12;;;;;;;6.68;4.28;;;;;;;-2.81;68.11;96997.63;6182656;28;20040;-69
2022/11/19 06:15:15;;;;;;;5.75;4.07;;;;;;;-2.75;67.92;97005.28;6201205;28;20423;-69
2022/11/19 06:18:19;;;;;;;7.65;4.35;;;;;;;-2.70;68.27;97010.41;6200503;28;20106;-70
2022/11/19 06:21:22;;;;;;;;;;;;;;;-2.55;68.22;97010.25;6200239;28;20090;-70
2022/11/19 06:24:27;;;;;;;7.18;4.40;;;;;;;-2.50;67.59;97015.34;6199641;28;19924;-69
2022/11/19 06:27:33;;;;;;;6.85;3.53;;;;;;;-2.44;67.12;97017.84;6183294;28;20084;-70
2022/11/19 06:30:38;;;;;;;7.20;4.20;;;;;;;-2.35;67.46;97022.91;6178285;28;20548;-70
2022/11/19 06:33:43;;;;;;;9.82;4.55;;;;;;;-2.29;66.89;97027.13;6180489;28;20633;-71
2022/11/19 06:36:48;;;;;;;13.30;5.38;;;;;;;-2.29;66.99;97022.84;6189953;28;20038;-71
2022/11/19 06:39:54;;;;;;;11.00;4.78;;;;;;;-2.26;67.18;97022.78;6184291;28;20030;-70
2022/11/19 06:42:58;;;;;;;9.82;4.45;;;;;;;-2.18;66.60;97034.72;6193194;28;20505;-70
2022/11/19 06:46:03;;;;;;;10.27;4.05;;;;;;;-2.14;66.37;97036.41;6185168;28;20034;-70
2022/11/19 06:49:06;;;;;;;;;;;;;;;-2.05;66.33;97038.88;6179206;28;20121;-71
2022/11/19 06:52:10;;;;;;;12.15;4.68;;;;;;;-1.98;66.24;97053.41;6182468;28;19921;-72
2022/11/19 06:55:13;;;;;;;;;;;;;;;-1.92;65.65;97053.31;6182657;28;20050;-71
2022/11/19 06:58:17;;;;;;;12.25;4.28;;;;;;;-1.87;65.45;97046.38;6184864;28;19932;-70
2022/11/19 07:01:20;;;;;;;;;;;;;;;-1.70;64.88;97058.19;6179619;28;20046;-71
2022/11/19 07:04:26;;;;;;;9.77;4.53;;;;;;;-1.71;65.28;97057.31;6182827;28;19926;-70
2022/11/19 07:07:33;;;;;;;12.80;4.85;;;;;;;-1.69;64.75;97054.75;6189366;28;20050;-71
2022/11/19 07:10:37;;;;;;;9.40;4.22;;;;;;;-1.69;65.22;97044.44;6198387;28;20468;-70
2022/11/19 07:13:57;;;;;;;17.02;5.13;;;;;;;-1.55;64.15;97055.41;6198644;28;20524;-69
2022/11/19 07:17:04;;;;;;;8.25;4.70;;;;;;;-1.50;64.30;97052.75;6197014;28;20052;-70
2022/11/19 07:20:07;;;;;;;12.77;5.38;;;;;;;-1.49;63.90;97050.16;6181493;28;20131;-70
2022/11/19 07:23:12;;;;;;;;;;;;;;;-1.27;64.07;97058.44;6189104;28;20512;-70
2022/11/19 07:26:17;;;;;;;10.38;5.05;;;;;;;-1.10;63.39;97063.34;6176873;28;19933;-70
2022/11/19 07:29:22;;;;;;;7.80;4.88;;;;;;;-1.04;63.11;97059.81;6183863;28;20072;-71
2022/11/19 07:32:29;;;;;;;10.93;5.10;;;;;;;-0.97;63.18;97061.41;6180531;28;20030;-71
2022/11/19 07:35:34;;;;;;;10.70;6.72;;;;;;;-0.96;62.92;97074.31;6179688;28;20637;-69
2022/11/19 07:38:39;;;;;;;9.23;5.47;;;;;;;-1.05;63.30;97078.75;6185862;28;20169;-71
2022/11/19 07:45:06;;;;;;;13.13;7.13;;;;;;;-1.38;64.07;97076.66;6182731;28;20717;-71
2022/11/19 07:48:10;;;;;;;12.82;6.70;;;;;;;-1.31;64.10;97086.88;6181623;28;20045;-71
2022/11/19 07:51:15;;;;;;;16.45;7.22;;;;;;;-1.38;63.64;97079.25;6185101;28;20050;-70
2022/11/19 07:54:19;;;;;;;14.35;7.07;;;;;;;-1.33;63.88;97083.47;6181840;28;20042;-71
2022/11/19 07:57:24;;;;;;;14.82;7.88;;;;;;;-1.55;63.71;97081.22;6179236;28;21521;-70
2022/11/19 08:00:28;;;;;;;17.52;8.63;;;;;;;-1.58;63.80;97089.84;6181442;28;20099;-71
2022/11/19 08:03:33;;;;;;;15.88;8.68;;;;;;;-1.60;63.19;97098.47;6179519;28;20047;-70
2022/11/19 08:06:38;;;;;;;16.88;8.80;;;;;;;-1.70;63.77;97096.88;6180901;28;20046;-70
2022/11/19 08:09:43;;;;;;;20.42;10.13;;;;;;;-1.63;63.52;97096.78;6197984;28;20520;-72
2022/11/19 08:13:01;;;;;;;23.23;11.32;;;;;;;-1.59;63.84;97097.59;6198265;28;20050;-71
2022/11/19 08:16:10;;;;;;;24.95;11.80;;;;;;;-1.65;64.25;97102.84;6178482;28;20057;-71
2022/11/19 08:19:15;;;;;;;20.60;10.57;;;;;;;-1.74;64.60;97083.16;6197450;28;20053;-70
2022/11/19 08:22:21;;;;;;;19.15;9.95;;;;;;;-1.81;64.13;97092.72;6177672;28;20092;-71
2022/11/19 08:25:24;;;;;;;17.48;9.02;;;;;;;-1.90;64.88;97100.56;6180277;28;20042;-70
2022/11/19 08:28:30;;;;;;;16.73;9.20;;;;;;;-1.95;64.39;97099.78;6183409;28;20501;-72
2022/11/19 08:31:33;;;;;;;19.27;8.13;;;;;;;-1.95;65.05;97109.22;6183692;28;20065;-69
2022/11/19 08:34:37;;;;;;;15.48;7.90;;;;;;;-1.99;64.80;97108.41;6166589;28;20052;-70
2022/11/19 08:37:41;;;;;;;14.75;7.95;;;;;;;-1.99;64.97;97118.72;6179925;28;20065;-71
2022/11/19 08:40:51;;;;;;;12.60;6.53;;;;;;;-2.06;65.10;97117.94;6176642;28;20039;-70
2022/11/19 08:43:55;;;;;;;14.63;7.10;;;;;;;-2.16;65.73;97118.06;6180227;28;20120;-73
2022/11/19 08:47:00;;;;;;;16.40;6.70;;;;;;;-2.15;65.13;97117.16;6185048;28;20405;-76
2022/11/19 08:50:04;;;;;;;9.48;5.25;;;;;;;-2.26;65.53;97119.88;6183640;28;20046;-74
2022/11/19 08:53:09;;;;;;;11.82;5.95;;;;;;;-2.33;65.45;97118.22;6186735;28;20049;-71
2022/11/19 08:56:12;;;;;;;;;;;;;;;-2.36;64.90;97119.13;6181220;28;20421;-70
2022/11/19 08:59:20;;;;;;;13.05;6.43;;;;;;;-2.47;65.21;97126.09;6181273;28;20525;-68
2022/11/19 09:02:24;;;;;;;11.98;5.63;;;;;;;-2.50;65.83;97128.69;6195902;28;20494;-74
2022/11/19 09:05:27;;;;;;;;;;;;;;;-2.53;65.75;97118.41;6202787;28;20540;-66
2022/11/19 09:08:32;;;;;;;10.95;5.10;;;;;;;-2.47;65.92;97131.25;6200797;28;19925;-70
2022/11/19 09:11:37;;;;;;;12.82;6.60;;;;;;;-2.56;65.72;97131.34;6199168;28;20042;-69
2022/11/19 09:14:41;;;;;;;10.63;5.75;;;;;;;-2.56;66.12;97136.50;6215233;28;20069;-67
2022/11/19 09:17:43;;;;;;;;;;;;;;;-2.57;65.30;97140.78;6192860;28;20104;-68
2022/11/19 09:20:54;;;;;;;12.65;6.85;;;;;;;-2.71;65.84;97143.47;6183063;28;20396;-66
2022/11/19 09:23:59;;;;;;;13.00;7.32;;;;;;;-2.80;65.64;97143.56;6199444;28;20413;-65
2022/11/19 09:27:04;;;;;;;13.18;7.30;;;;;;;-2.87;66.15;97143.63;6202661;28;20049;-65
2022/11/19 09:30:07;;;;;;;;;;;;;;;-2.76;66.22;97145.22;6198932;28;20057;-74
2022/11/19 09:33:12;;;;;;;23.88;11.98;;;;;;;-2.83;65.61;97143.59;6196475;28;20005;-75
2022/11/19 09:36:17;;;;;;;18.42;8.98;;;;;;;-2.96;65.72;97139.38;6185028;28;20144;-78
2022/11/19 09:39:20;;;;;;;21.45;9.40;;;;;;;-2.94;65.06;97151.38;6185122;28;20038;-74
2022/11/19 09:42:49;;;;;;;18.55;10.65;;;;;;;-3.21;65.57;97147.28;6187510;28;20038;-78
2022/11/19 09:46:13;;;;;;;15.63;7.72;;;;;;;-3.23;66.25;97149.03;6191384;28;20050;-75
2022/11/19 09:49:29;;;;;;;18.00;7.72;;;;;;;-3.21;65.77;97151.56;6199395;28;20050;-67
2022/11/19 09:52:37;;;;;;;27.15;13.80;;;;;;;-3.37;65.84;97140.50;6183967;28;20090;-76
2022/11/19 09:55:46;;;;;;;19.13;10.13;;;;;;;-3.41;66.31;97161.97;6182687;28;20046;-74
2022/11/19 09:58:50;;;;;;;15.27;9.02;;;;;;;-3.46;66.73;97156.00;6182264;28;20100;-66
2022/11/19 10:01:57;;;;;;;12.50;6.28;;;;;;;-3.53;66.95;97162.91;6189218;28;20042;-72
2022/11/19 10:05:02;;;;;;;9.30;5.90;;;;;;;-3.49;66.85;97166.28;6180250;28;20042;-69
2022/11/19 10:08:21;;;;;;;7.50;4.57;;;;;;;-3.58;67.36;97177.47;6185665;28;20512;-69
2022/11/19 10:11:50;;;;;;;9.15;4.63;;;;;;;-3.54;66.94;97184.31;6182866;28;20057;-71
2022/11/19 10:15:33;;;;;;;8.88;5.20;;;;;;;-3.61;66.57;97183.50;6180558;28;20054;-70
2022/11/19 10:19:03;;;;;;;10.30;5.28;;;;;;;-3.75;66.93;97179.28;6149632;28;20046;-70
2022/11/19 10:22:12;;;;;;;9.48;4.50;;;;;;;-3.66;66.68;97187.78;6176622;28;20650;-73
2022/11/19 10:25:27;;;;;;;13.52;4.82;;;;;;;-3.77;66.60;97191.28;6197044;28;20042;-69
2022/11/19 10:28:35;;;;;;;5.75;3.45;;;;;;;-3.82;65.90;97193.88;6215477;28;20038;-75
2022/11/19 10:31:47;;;;;;;10.05;4.90;;;;;;;-4.04;65.64;97207.63;6184822;28;20046;-68
2022/11/19 10:34:57;;;;;;;7.57;4.25;;;;;;;-4.23;66.37;97212.78;6182044;28;20046;-73
2022/11/19 10:38:10;;;;;;;9.25;4.75;;;;;;;-4.20;66.11;97211.94;6182434;28;20042;-68
2022/11/19 10:41:20;;;;;;;6.90;4.20;;;;;;;-4.23;66.20;97220.50;6184230;28;20149;-74
2022/11/19 10:44:42;;;;;;;7.35;4.18;;;;;;;-4.20;65.85;97225.63;6190192;28;20049;-71
2022/11/19 10:47:51;;;;;;;10.10;5.20;;;;;;;-4.22;65.80;97232.47;6181266;28;20046;-71
2022/11/19 10:50:59;;;;;;;10.52;5.72;;;;;;;-4.27;66.06;97234.22;6175681;28;20065;-72
2022/11/19 10:54:13;;;;;;;11.80;5.50;;;;;;;-4.38;66.05;97238.50;6176992;28;20181;-72
2022/11/19 10:57:20;;;;;;;17.97;7.47;;;;;;;-4.34;66.14;97242.78;6180038;28;20042;-76
2022/11/19 11:00:24;;;;;;;19.27;7.90;;;;;;;-4.44;65.75;97252.22;6183288;28;20051;-77
2022/11/19 11:03:42;;;;;;;18.05;7.35;;;;;;;-4.49;65.74;97259.06;6179215;28;20038;-69
2022/11/19 11:07:02;;;;;;;17.70;7.10;;;;;;;-4.53;65.74;97262.47;6179056;28;20050;-76
2022/11/19 11:10:31;;;;;;;12.43;4.85;;;;;;;-4.62;65.46;97260.75;6178201;28;20042;-69
2022/11/19 11:17:03;;;;;;;11.75;5.65;;;;;;;-4.93;66.37;97274.38;6177511;28;20069;-69
2022/11/19 11:20:19;;;;;;;9.40;5.68;;;;;;;-4.94;65.98;97278.66;6197656;28;20042;-69
2022/11/19 11:23:27;;;;;;;8.93;4.68;;;;;;;-5.00;65.74;97286.34;6197247;28;20054;-68
2022/11/19 11:26:32;;;;;;;8.98;5.30;;;;;;;-5.16;65.99;97295.69;6196705;28;20058;-68
2022/11/19 11:29:33;;;;;;;9.35;5.63;;;;;;;-5.29;66.25;97297.38;6197677;28;20042;-67
2022/11/19 11:32:38;;;;;;;8.07;4.75;;;;;;;-5.26;66.69;97296.53;6197338;28;20057;-69
2022/11/19 11:35:44;;;;;;;8.65;5.25;;;;;;;-5.21;66.18;97300.81;6197992;28;20515;-68
2022/11/19 11:38:48;;;;;;;7.38;4.47;;;;;;;-5.22;66.39;97305.94;6197266;28;20050;-69
2022/11/19 11:41:53;;;;;;;10.18;5.10;;;;;;;-5.07;64.69;97317.97;6197199;28;20193;-70
2022/11/19 11:45:02;;;;;;;9.20;4.20;;;;;;;-5.40;65.16;97313.56;6197634;28;20421;-69
2022/11/19 11:48:20;;;;;;;7.72;4.50;;;;;;;-5.62;65.13;97316.00;6194473;28;20497;-68
2022/11/19 11:51:32;;;;;;;7.38;4.57;;;;;;;-5.69;64.96;97327.06;6194771;28;20038;-70
2022/11/19 11:54:37;;;;;;;9.23;5.15;;;;;;;-5.69;65.06;97333.06;6195990;28;20050;-68
2022/11/19 11:57:55;;;;;;;9.32;6.25;;;;;;;-5.84;65.17;97332.09;6184909;28;20065;-72
2022/11/19 12:01:17;;;;;;;14.07;6.20;;;;;;;-5.88;65.11;97342.31;6184491;28;20047;-73
2022/11/19 12:04:23;;;;;;;8.50;5.05;;;;;;;-5.89;65.10;97350.00;6179787;28;20575;-71
2022/11/19 12:07:46;;;;;;;8.93;4.75;;;;;;;-6.12;66.00;97357.53;6175116;28;20084;-67
2022/11/19 12:11:52;;;;;;;10.13;5.40;;;;;;;-6.22;65.61;97356.59;6179521;28;20042;-68
2022/11/19 12:14:57;;;;;;;7.90;4.85;;;;;;;-6.30;66.48;97352.25;6178775;28;20061;-68
2022/11/19 12:18:19;;;;;;;8.27;5.05;;;;;;;-6.24;65.71;97372.81;6180976;28;20034;-67
2022/11/19 12:21:49;;;;;;;11.23;4.35;;;;;;;-6.25;65.21;97381.34;6178274;28;20046;-67
2022/11/19 12:25:30;;;;;;;6.85;3.28;;;;;;;-6.29;65.58;97379.56;6183122;28;20054;-68
2022/11/19 12:29:03;;;;;;;11.00;6.43;;;;;;;-6.38;64.53;97381.19;6159483;28;20505;-66
2022/11/19 12:32:13;;;;;;;11.88;4.63;;;;;;;-6.47;65.32;97391.34;6176629;28;20638;-67
2022/11/19 12:35:29;;;;;;;9.23;4.18;;;;;;;-6.54;65.10;97394.69;6180118;28;20050;-68
2022/11/19 12:38:49;;;;;;;9.40;5.23;;;;;;;-6.57;65.47;97389.53;6179377;28;20057;-67
2022/11/19 12:42:18;;;;;;;12.15;5.90;;;;;;;-6.51;65.15;97389.63;6181159;28;20428;-67
2022/11/19 12:45:49;;;;;;;10.00;5.85;;;;;;;-6.49;64.92;97390.47;6190828;28;20121;-70
2022/11/19 12:48:57;;;;;;;7.93;4.53;;;;;;;-6.55;64.87;97408.34;6193682;28;20564;-68
2022/11/19 12:52:34;;;;;;;14.02;6.43;;;;;;;-6.51;64.86;97412.66;6193695;28;20114;-69
2022/11/19 12:55:52;;;;;;;9.73;5.00;;;;;;;-6.63;65.04;97410.81;6181467;28;20069;-69
2022/11/19 12:59:11;;;;;;;13.63;6.25;;;;;;;-6.59;65.29;97411.72;6178943;28;20046;-66
2022/11/19 13:02:28;;;;;;;12.27;5.57;;;;;;;-6.61;64.82;97413.41;6192328;28;20053;-70
2022/11/19 13:05:54;;;;;;;11.25;6.07;;;;;;;-6.66;64.31;97420.16;6195330;28;20489;-69
2022/11/19 13:09:03;;;;;;;9.90;4.50;;;;;;;-6.69;65.58;97420.97;6167506;28;20655;-69
2022/11/19 13:12:13;;;;;;;7.05;4.53;;;;;;;-6.77;65.55;97430.25;6163184;28;20050;-68
2022/11/19 13:15:42;;;;;;;14.23;5.57;;;;;;;-6.78;64.94;97431.97;6160669;28;20428;-68
2022/11/19 13:18:51;;;;;;;9.52;4.63;;;;;;;-6.77;65.37;97432.81;6164781;28;21266;-70
2022/11/19 13:22:05;;;;;;;7.20;4.28;;;;;;;-6.85;65.63;97413.94;6161345;28;20050;-71
2022/11/19 13:25:24;;;;;;;10.50;5.38;;;;;;;-6.77;65.83;97443.91;6159532;28;20669;-70
2022/11/19 13:28:45;;;;;;;11.63;5.22;;;;;;;-6.75;65.44;97450.75;6155812;28;20046;-72
2022/11/19 13:32:08;;;;;;;9.43;5.00;;;;;;;-6.74;65.90;97449.91;6159427;28;20084;-72
2022/11/19 13:35:27;;;;;;;14.50;6.15;;;;;;;-6.95;66.27;97437.72;6157260;28;20042;-72
2022/11/19 13:38:52;;;;;;;12.88;5.60;;;;;;;-6.77;66.52;97461.81;6156745;28;20494;-72
2022/11/19 13:45:22;;;;;;;9.38;5.88;;;;;;;-6.91;66.66;97465.91;6168948;28;20044;-68
2022/11/19 13:48:35;;;;;;;9.95;4.75;;;;;;;-6.81;65.92;97478.00;6158843;28;20432;-69
2022/11/19 13:51:58;;;;;;;10.60;5.77;;;;;;;-6.97;65.76;97470.94;6176231;28;20062;-68
2022/11/19 13:55:00;;;;;;;10.75;4.70;;;;;;;-6.87;66.09;97477.91;6197482;28;20054;-67
2022/11/19 13:58:32;;;;;;;11.52;6.40;;;;;;;-6.98;66.13;97481.16;6188420;28;20176;-69
2022/11/19 14:01:46;;;;;;;11.75;5.90;;;;;;;-7.05;66.12;97488.78;6174591;28;20724;-68
2022/11/19 14:04:50;;;;;;;13.10;6.20;;;;;;;-7.02;66.69;97498.16;6169249;28;20584;-67
2022/11/19 14:08:01;;;;;;;11.45;4.78;;;;;;;-7.02;66.82;97483.69;6165306;28;20049;-67
2022/11/19 14:11:21;;;;;;;16.70;6.25;;;;;;;-7.00;66.27;97499.03;6165740;28;20038;-68
2022/11/19 14:29:19;;;;;;;6.47;3.88;;;;;;;-7.12;66.34;97511.66;6154603;28;20446;-66
2022/11/19 14:32:29;;;;;;;8.57;3.90;;;;;;;-7.34;66.55;97521.56;6161273;28;20045;-68
2022/11/19 14:35:36;;;;;;;8.00;4.32;;;;;;;-7.32;65.79;97524.16;6153745;28;20045;-68
2022/11/19 14:39:01;;;;;;;10.00;4.38;;;;;;;-7.48;66.35;97526.44;6156439;28;20809;-68
2022/11/19 14:42:19;;;;;;;16.35;6.50;;;;;;;-7.47;66.29;97535.84;6149658;28;20812;-68
2022/11/19 14:45:21;;;;;;;11.65;5.78;;;;;;;-7.55;66.50;97536.56;6175264;28;20046;-67
2022/11/19 14:48:25;;;;;;;10.38;5.28;;;;;;;-7.56;67.03;97533.13;6161963;28;20082;-68
2022/11/19 14:51:31;;;;;;;9.43;4.97;;;;;;;-7.58;66.93;97541.63;6157590;28;20106;-69
2022/11/19 14:54:43;;;;;;;10.57;6.07;;;;;;;-7.61;66.49;97544.09;6164879;28;20835;-66
2022/11/19 14:57:58;;;;;;;10.05;6.10;;;;;;;-7.63;66.76;97544.09;6158830;28;20498;-71
2022/11/19 15:01:17;;;;;;;16.00;7.47;;;;;;;-7.63;66.88;97553.47;6179569;28;20050;-70
2022/11/19 15:04:28;;;;;;;14.70;7.38;;;;;;;-7.67;66.69;97557.66;6186592;28;20046;-68
2022/11/19 15:07:37;;;;;;;13.18;7.15;;;;;;;-7.79;67.01;97572.75;6152525;28;20100;-69
2022/11/19 15:11:03;;;;;;;12.77;6.25;;;;;;;-7.80;66.90;97571.03;6151121;28;20050;-69
2022/11/19 15:14:32;;;;;;;16.65;7.47;;;;;;;-7.82;67.10;97575.25;6157590;28;20046;-68
2022/11/19 15:17:40;;;;;;;11.45;6.05;;;;;;;-7.78;67.62;97565.13;6158248;28;22050;-67
2022/11/19 15:21:20;;;;;;;11.43;6.15;;;;;;;-7.75;67.17;97580.50;6163693;28;20057;-67
2022/11/19 15:24:38;;;;;;;13.00;6.07;;;;;;;-7.91;67.04;97588.72;6093218;28;20104;-65
2022/11/19 15:28:01;;;;;;;15.35;6.88;;;;;;;-7.93;66.99;97587.81;6162717;28;20054;-64
2022/11/19 15:31:19;;;;;;;12.63;6.47;;;;;;;-7.98;66.84;97591.97;6161999;28;20046;-65
2022/11/19 15:34:55;;;;;;;18.30;9.35;;;;;;;-7.92;66.94;97587.88;6161461;28;20437;-65